Time;durP1;ratioP1;P1;durP2;ratioP2;P2;SDS_P1;SDS_P2;PMS_P1;PMS_P2;Temp;Humidity;BMP_temperature;BMP_pressure;BME280_temperature;BME280_humidity;BME280_pressure;Samples;Min_cycle;Max_cycle;Signal;HPM_P1;HPM_P2
2021/11/18 00:00:51;;;;;;;4.78;3.25;;;;;;;;;;4794283;29;32299;-71
2021/11/18 00:03:19;;;;;;;3.33;2.55;;;;;;;;;;4793837;29;32266;-70
2021/11/18 00:05:46;;;;;;;4.03;2.75;;;;;;;;;;4793885;29;34064;-69
2021/11/18 00:08:15;;;;;;;2.83;2.35;;;;;;;;;;4794212;29;32047;-70
2021/11/18 00:10:45;;;;;;;3.33;2.65;;;;;;;;;;4794546;29;32285;-69
2021/11/18 00:13:15;;;;;;;3.10;2.40;;;;;;;;;;4794281;29;32361;-68
2021/11/18 00:15:42;;;;;;;2.80;2.25;;;;;;;;;;4794079;29;32180;-68
2021/11/18 00:18:11;;;;;;;;;;;;;;;;;;4794077;29;32180;-70
2021/11/18 00:20:40;;;;;;;3.45;2.67;;;;;;;;;;4793755;29;32117;-68
2021/11/18 00:23:07;;;;;;;3.53;2.72;;;;;;;;;;4793688;29;32197;-71
2021/11/18 00:25:35;;;;;;;3.20;2.53;;;;;;;;;;4794266;29;32250;-69
2021/11/18 00:28:02;;;;;;;3.28;2.42;;;;;;;;;;4793839;29;34443;-69
2021/11/18 00:30:29;;;;;;;3.60;2.42;;;;;;;;;;4793820;29;32362;-70
2021/11/18 00:32:56;;;;;;;3.33;2.80;;;;;;;;;;4793518;29;32256;-70
2021/11/18 00:35:26;;;;;;;5.07;3.10;;;;;;;;;;4794516;29;32269;-69
2021/11/18 00:37:52;;;;;;;3.03;2.40;;;;;;;;;;4792675;29;33987;-69
2021/11/18 00:40:22;;;;;;;2.60;2.40;;;;;;;;;;4793545;29;32592;-69
2021/11/18 00:42:50;;;;;;;3.03;2.30;;;;;;;;;;4793137;29;32394;-69
2021/11/18 00:45:20;;;;;;;2.78;2.10;;;;;;;;;;4793655;29;32347;-70
2021/11/18 00:47:47;;;;;;;3.30;2.88;;;;;;;;;;4791764;29;32371;-70
2021/11/18 00:50:15;;;;;;;3.30;2.63;;;;;;;;;;4792796;29;35601;-70
2021/11/18 00:52:42;;;;;;;2.85;2.35;;;;;;;;;;4793593;29;32447;-70
2021/11/18 00:55:10;;;;;;;3.78;3.38;;;;;;;;;;4793721;29;32347;-70
2021/11/18 00:57:37;;;;;;;3.30;2.25;;;;;;;;;;4794136;29;32204;-69
2021/11/18 01:00:08;;;;;;;4.07;2.75;;;;;;;;;;4793581;29;34453;-69
2021/11/18 01:02:34;;;;;;;2.92;2.33;;;;;;;;;;4793742;29;32279;-68
2021/11/18 01:05:01;;;;;;;3.85;2.53;;;;;;;;;;4793038;29;32166;-68
2021/11/18 01:07:28;;;;;;;3.00;2.40;;;;;;;;;;4793559;29;32386;-68
2021/11/18 01:09:54;;;;;;;3.40;2.13;;;;;;;;;;4793577;29;32278;-68
2021/11/18 01:12:21;;;;;;;3.22;2.17;;;;;;;;;;4793514;29;34222;-68
2021/11/18 01:14:47;;;;;;;3.40;2.25;;;;;;;;;;4793625;29;32082;-70
2021/11/18 01:17:15;;;;;;;3.20;2.45;;;;;;;;;;4793354;29;32495;-69
2021/11/18 01:19:42;;;;;;;3.28;2.55;;;;;;;;;;4793273;29;32397;-72
2021/11/18 01:22:10;;;;;;;2.60;2.40;;;;;;;;;;4793622;29;34543;-68
2021/11/18 01:24:38;;;;;;;2.72;2.47;;;;;;;;;;4793252;29;32315;-69
2021/11/18 01:27:05;;;;;;;3.78;3.47;;;;;;;;;;4793812;29;32095;-67
2021/11/18 01:29:32;;;;;;;2.65;2.40;;;;;;;;;;4793342;29;32233;-68
2021/11/18 01:31:59;;;;;;;2.42;2.22;;;;;;;;;;4793546;29;32138;-70
2021/11/18 01:34:28;;;;;;;2.40;2.08;;;;;;;;;;4792781;29;35213;-69
2021/11/18 01:36:55;;;;;;;2.35;2.00;;;;;;;;;;4793126;29;32312;-70
2021/11/18 01:39:21;;;;;;;2.88;2.50;;;;;;;;;;4792922;29;32377;-68
2021/11/18 01:41:48;;;;;;;2.47;2.28;;;;;;;;;;4792863;29;32483;-68
2021/11/18 01:44:19;;;;;;;4.38;2.63;;;;;;;;;;4792864;29;34801;-70
2021/11/18 01:46:47;;;;;;;2.63;2.13;;;;;;;;;;4792941;29;32138;-68
2021/11/18 01:49:14;;;;;;;3.35;2.35;;;;;;;;;;4793147;29;32250;-69
2021/11/18 01:51:45;;;;;;;2.92;2.22;;;;;;;;;;4792345;29;32317;-68
2021/11/18 01:54:14;;;;;;;2.78;2.47;;;;;;;;;;4792925;29;33011;-69
2021/11/18 01:56:42;;;;;;;3.00;2.15;;;;;;;;;;4792879;29;34460;-72
2021/11/18 01:59:13;;;;;;;2.75;2.47;;;;;;;;;;4792565;29;32279;-73
2021/11/18 02:01:43;;;;;;;4.05;2.60;;;;;;;;;;4792854;29;32258;-68
2021/11/18 02:04:13;;;;;;;2.55;2.05;;;;;;;;;;4792797;29;32333;-69
2021/11/18 02:06:47;;;;;;;3.40;2.30;;;;;;;;;;4792096;29;34389;-69
2021/11/18 02:09:16;;;;;;;4.72;2.97;;;;;;;;;;4792974;29;32279;-70
2021/11/18 02:11:46;;;;;;;2.28;2.05;;;;;;;;;;4792869;29;32348;-70
2021/11/18 02:14:16;;;;;;;2.72;2.28;;;;;;;;;;4791350;29;32272;-69
2021/11/18 02:16:44;;;;;;;2.35;1.88;;;;;;;;;;4792808;29;32418;-69
2021/11/18 02:19:13;;;;;;;2.92;2.08;;;;;;;;;;4792747;29;34187;-67
2021/11/18 02:21:46;;;;;;;2.80;2.45;;;;;;;;;;4792085;29;32352;-69
2021/11/18 02:24:20;;;;;;;3.35;2.28;;;;;;;;;;4792200;29;32357;-68
2021/11/18 02:26:46;;;;;;;2.95;2.30;;;;;;;;;;4792378;29;32096;-68
2021/11/18 02:29:13;;;;;;;2.70;2.50;;;;;;;;;;4792383;29;34054;-71
2021/11/18 02:31:44;;;;;;;3.58;2.63;;;;;;;;;;4792738;29;32084;-67
2021/11/18 02:34:14;;;;;;;2.65;2.35;;;;;;;;;;4792554;29;32065;-71
2021/11/18 02:36:43;;;;;;;4.25;2.13;;;;;;;;;;4791886;29;32360;-69
2021/11/18 02:39:10;;;;;;;2.80;2.28;;;;;;;;;;4791563;29;32385;-70
2021/11/18 02:41:39;;;;;;;2.78;2.45;;;;;;;;;;4791594;29;34524;-71
2021/11/18 02:44:07;;;;;;;2.95;2.40;;;;;;;;;;4541922;29;32569;-70
2021/11/18 02:46:34;;;;;;;2.45;2.00;;;;;;;;;;4826687;29;32290;-71
2021/11/18 02:49:01;;;;;;;2.65;2.25;;;;;;;;;;4809874;29;32343;-68
2021/11/18 02:51:27;;;;;;;2.45;2.13;;;;;;;;;;4808787;29;35438;-68
2021/11/18 02:53:56;;;;;;;2.95;2.30;;;;;;;;;;4809612;29;32296;-69
2021/11/18 02:56:24;;;;;;;3.65;2.55;;;;;;;;;;4818724;29;32388;-69
2021/11/18 02:58:50;;;;;;;2.78;2.30;;;;;;;;;;4810626;29;32406;-68
2021/11/18 03:01:22;;;;;;;3.28;2.25;;;;;;;;;;4808777;29;32365;-68
2021/11/18 03:03:49;;;;;;;2.33;2.13;;;;;;;;;;4807439;29;35351;-70
2021/11/18 03:06:17;;;;;;;3.20;1.92;;;;;;;;;;4808655;29;32179;-70
2021/11/18 03:08:45;;;;;;;2.53;2.00;;;;;;;;;;4809806;29;32313;-69
2021/11/18 03:11:13;;;;;;;7.80;2.40;;;;;;;;;;4810165;29;32394;-69
2021/11/18 03:13:39;;;;;;;3.83;1.42;;;;;;;;;;4809378;29;34482;-70
2021/11/18 03:16:08;;;;;;;6.10;2.35;;;;;;;;;;4810000;29;32339;-69
2021/11/18 03:18:35;;;;;;;5.50;2.60;;;;;;;;;;4812954;29;32375;-69
2021/11/18 03:21:04;;;;;;;2.63;1.88;;;;;;;;;;4814087;29;32169;-69
2021/11/18 03:23:31;;;;;;;2.45;2.25;;;;;;;;;;4808907;29;32682;-69
2021/11/18 03:25:58;;;;;;;;;;;;;;;;;;4809344;29;34068;-70
2021/11/18 03:28:29;;;;;;;2.13;1.92;;;;;;;;;;4808799;29;32513;-71
2021/11/18 03:30:56;;;;;;;6.10;2.05;;;;;;;;;;4810177;29;32191;-70
2021/11/18 03:33:27;;;;;;;6.28;1.73;;;;;;;;;;4809930;29;32304;-70
2021/11/18 03:35:56;;;;;;;3.13;1.63;;;;;;;;;;4809412;29;33869;-71
2021/11/18 03:38:27;;;;;;;2.20;1.92;;;;;;;;;;4807019;29;32403;-70
2021/11/18 03:41:01;;;;;;;2.75;1.95;;;;;;;;;;4809718;29;32256;-72
2021/11/18 03:43:31;;;;;;;2.60;2.15;;;;;;;;;;4809585;29;32306;-71
2021/11/18 03:45:57;;;;;;;4.55;2.08;;;;;;;;;;4809507;29;32365;-72
2021/11/18 03:48:28;;;;;;;3.50;2.17;;;;;;;;;;4808317;29;34817;-73
2021/11/18 03:50:56;;;;;;;2.75;2.10;;;;;;;;;;4808622;29;32250;-69
2021/11/18 03:53:22;;;;;;;;;;;;;;;;;;4809897;29;32328;-68
2021/11/18 03:55:49;;;;;;;2.67;1.98;;;;;;;;;;4809140;29;32417;-69
2021/11/18 03:58:16;;;;;;;2.78;1.90;;;;;;;;;;4809096;29;34531;-69
2021/11/18 04:00:44;;;;;;;2.25;1.73;;;;;;;;;;4809094;29;32393;-68
2021/11/18 04:03:13;;;;;;;2.75;2.10;;;;;;;;;;4809098;29;32251;-72
2021/11/18 04:05:41;;;;;;;2.65;2.15;;;;;;;;;;4808842;29;32215;-70
2021/11/18 04:08:09;;;;;;;2.10;1.90;;;;;;;;;;4809258;29;32247;-70
2021/11/18 04:10:37;;;;;;;2.13;1.90;;;;;;;;;;4808691;29;34029;-70
2021/11/18 04:13:04;;;;;;;2.03;1.50;;;;;;;;;;4808265;29;32270;-71
2021/11/18 04:15:32;;;;;;;2.05;1.77;;;;;;;;;;4808402;29;32427;-70
2021/11/18 04:18:01;;;;;;;2.05;1.75;;;;;;;;;;4808942;29;32358;-69
2021/11/18 04:20:29;;;;;;;1.92;1.55;;;;;;;;;;4808608;29;34208;-69
2021/11/18 04:22:56;;;;;;;2.08;1.63;;;;;;;;;;4797587;29;32191;-72
2021/11/18 04:25:30;;;;;;;1.85;1.40;;;;;;;;;;4808958;29;32305;-71
2021/11/18 04:27:58;;;;;;;2.72;1.45;;;;;;;;;;4811725;29;32223;-71
2021/11/18 04:30:34;;;;;;;2.08;1.85;;;;;;;;;;4811858;29;32367;-71
2021/11/18 04:33:02;;;;;;;2.08;1.20;;;;;;;;;;4810573;29;35512;-71
2021/11/18 04:35:29;;;;;;;1.52;1.42;;;;;;;;;;4810002;29;32220;-71
2021/11/18 04:37:55;;;;;;;1.48;1.38;;;;;;;;;;4810006;29;32415;-70
2021/11/18 04:40:22;;;;;;;1.65;1.45;;;;;;;;;;4811448;29;32225;-71
2021/11/18 04:42:48;;;;;;;2.83;1.50;;;;;;;;;;4811703;29;34991;-71
2021/11/18 04:45:20;;;;;;;1.50;1.38;;;;;;;;;;4810870;29;32265;-70
2021/11/18 04:47:47;;;;;;;1.55;1.42;;;;;;;;;;4810467;29;32304;-71
2021/11/18 04:50:16;;;;;;;1.65;1.55;;;;;;;;;;4811192;29;32320;-70
2021/11/18 04:52:44;;;;;;;4.20;1.42;;;;;;;;;;4811342;29;32267;-71
2021/11/18 04:55:13;;;;;;;3.53;1.48;;;;;;;;;;4811418;29;34360;-70
2021/11/18 04:57:40;;;;;;;3.38;1.55;;;;;;;;;;4811429;29;32417;-71
2021/11/18 05:00:12;;;;;;;3.55;1.55;;;;;;;;;;4811467;29;32573;-71
2021/11/18 05:02:40;;;;;;;1.45;1.35;;;;;;;;;;4811470;29;32178;-70
2021/11/18 05:05:08;;;;;;;1.55;1.35;;;;;;;;;;4811121;29;34167;-70
2021/11/18 05:07:36;;;;;;;1.77;1.33;;;;;;;;;;4811049;29;32256;-71
2021/11/18 05:10:05;;;;;;;1.63;1.52;;;;;;;;;;4811146;29;32300;-72
2021/11/18 05:12:41;;;;;;;1.30;1.20;;;;;;;;;;4810852;29;32240;-71
2021/11/18 05:15:11;;;;;;;;;;;;;;;;;;4812113;29;32598;-70
2021/11/18 05:17:38;;;;;;;1.40;1.30;;;;;;;;;;4811567;29;34755;-70
2021/11/18 05:20:08;;;;;;;2.22;1.05;;;;;;;;;;4811482;29;32107;-72
2021/11/18 05:22:36;;;;;;;1.35;1.02;;;;;;;;;;4811344;29;32373;-70
2021/11/18 05:25:04;;;;;;;2.03;1.20;;;;;;;;;;4811348;29;32240;-70
2021/11/18 05:27:31;;;;;;;1.70;1.35;;;;;;;;;;4811597;29;34517;-70
2021/11/18 05:29:57;;;;;;;2.35;1.23;;;;;;;;;;4811392;29;32391;-72
2021/11/18 05:32:24;;;;;;;1.70;1.02;;;;;;;;;;4811734;29;32217;-71
2021/11/18 05:34:51;;;;;;;1.40;1.30;;;;;;;;;;4811209;29;32162;-71
2021/11/18 05:37:17;;;;;;;1.60;1.40;;;;;;;;;;4811000;29;32382;-70
2021/11/18 05:39:45;;;;;;;1.33;1.13;;;;;;;;;;4811302;29;34015;-71
2021/11/18 05:42:12;;;;;;;1.17;1.08;;;;;;;;;;4811021;29;32497;-71
2021/11/18 05:44:39;;;;;;;2.47;1.20;;;;;;;;;;4811256;29;32163;-71
2021/11/18 05:47:06;;;;;;;1.70;1.42;;;;;;;;;;4810770;29;32331;-71
2021/11/18 05:49:32;;;;;;;2.83;1.52;;;;;;;;;;4810821;29;35530;-71
2021/11/18 05:51:58;;;;;;;1.30;1.13;;;;;;;;;;4810739;29;32247;-71
2021/11/18 05:54:25;;;;;;;1.30;1.00;;;;;;;;;;4810671;29;32338;-70
2021/11/18 05:56:53;;;;;;;2.13;1.63;;;;;;;;;;4811021;29;32375;-71
2021/11/18 05:59:19;;;;;;;1.73;1.42;;;;;;;;;;4811277;29;32295;-71
2021/11/18 06:01:47;;;;;;;1.58;1.42;;;;;;;;;;4811002;29;33893;-71
2021/11/18 06:04:14;;;;;;;2.28;1.85;;;;;;;;;;4811149;29;32255;-70
2021/11/18 06:06:40;;;;;;;1.75;1.58;;;;;;;;;;4810420;29;32219;-70
2021/11/18 06:09:07;;;;;;;1.65;1.30;;;;;;;;;;4811100;29;32156;-70
2021/11/18 06:11:37;;;;;;;1.67;1.58;;;;;;;;;;4810903;29;35181;-71
2021/11/18 06:14:06;;;;;;;2.25;1.38;;;;;;;;;;4810581;29;32195;-71
2021/11/18 06:16:34;;;;;;;2.58;1.83;;;;;;;;;;4810849;29;32268;-71
2021/11/18 06:19:01;;;;;;;2.25;1.70;;;;;;;;;;4810889;29;32393;-71
2021/11/18 06:21:29;;;;;;;2.22;2.03;;;;;;;;;;4810441;29;32222;-71
2021/11/18 06:23:57;;;;;;;3.83;1.88;;;;;;;;;;4811138;29;34240;-71
2021/11/18 06:26:27;;;;;;;2.60;1.80;;;;;;;;;;4810488;29;32210;-71
2021/11/18 06:28:54;;;;;;;2.72;2.05;;;;;;;;;;4810770;29;32223;-71
2021/11/18 06:31:22;;;;;;;2.33;1.55;;;;;;;;;;4810590;29;32289;-71
2021/11/18 06:33:50;;;;;;;2.55;2.13;;;;;;;;;;4810454;29;34480;-71
2021/11/18 06:36:17;;;;;;;3.50;1.80;;;;;;;;;;4810238;29;32160;-71
2021/11/18 06:38:45;;;;;;;;;;;;;;;;;;4809592;29;32207;-71
2021/11/18 06:41:15;;;;;;;2.15;1.92;;;;;;;;;;4810808;29;32734;-71
2021/11/18 06:43:43;;;;;;;2.30;1.58;;;;;;;;;;4810342;29;32121;-71
2021/11/18 06:46:10;;;;;;;2.83;1.85;;;;;;;;;;4808722;29;34242;-71
2021/11/18 06:48:39;;;;;;;1.63;1.50;;;;;;;;;;4802879;29;32254;-70
2021/11/18 06:51:08;;;;;;;2.08;1.48;;;;;;;;;;4790906;29;32639;-70
2021/11/18 06:53:36;;;;;;;2.28;1.73;;;;;;;;;;4809558;29;32210;-71
2021/11/18 06:56:04;;;;;;;2.00;1.73;;;;;;;;;;4809215;29;34631;-70
2021/11/18 06:58:31;;;;;;;5.03;1.98;;;;;;;;;;4809449;29;32305;-69
2021/11/18 07:00:58;;;;;;;2.58;1.55;;;;;;;;;;4810092;29;32351;-70
2021/11/18 07:03:25;;;;;;;5.22;1.85;;;;;;;;;;4810323;29;32603;-69
2021/11/18 07:05:53;;;;;;;1.67;1.38;;;;;;;;;;4809164;29;32187;-70
2021/11/18 07:08:20;;;;;;;1.95;1.75;;;;;;;;;;4809630;29;33907;-70
2021/11/18 07:10:47;;;;;;;2.63;1.45;;;;;;;;;;4809888;29;32531;-70
2021/11/18 07:13:17;;;;;;;2.03;1.77;;;;;;;;;;4809351;29;32125;-69
2021/11/18 07:15:43;;;;;;;2.38;1.70;;;;;;;;;;4809862;29;32356;-69
2021/11/18 07:18:10;;;;;;;1.63;1.52;;;;;;;;;;4809388;29;34776;-70
2021/11/18 07:20:37;;;;;;;2.42;1.73;;;;;;;;;;4806389;29;32449;-70
2021/11/18 07:23:05;;;;;;;2.33;1.88;;;;;;;;;;4791534;29;32384;-71
2021/11/18 07:25:41;;;;;;;2.03;1.83;;;;;;;;;;4791626;29;32411;-70
2021/11/18 07:28:09;;;;;;;2.50;2.28;;;;;;;;;;4790787;29;32815;-71
2021/11/18 07:30:36;;;;;;;3.72;2.05;;;;;;;;;;4791030;29;34040;-72
2021/11/18 07:33:02;;;;;;;2.35;1.88;;;;;;;;;;4791088;29;32271;-71
2021/11/18 07:35:30;;;;;;;2.17;1.88;;;;;;;;;;4790995;29;32080;-70
2021/11/18 07:37:58;;;;;;;2.90;2.50;;;;;;;;;;4791531;29;32302;-71
2021/11/18 07:40:26;;;;;;;2.75;1.55;;;;;;;;;;4790869;29;35800;-71
2021/11/18 07:42:53;;;;;;;2.45;1.67;;;;;;;;;;4790984;29;33055;-71
2021/11/18 07:45:22;;;;;;;2.00;1.75;;;;;;;;;;4790909;29;32298;-70
2021/11/18 07:47:49;;;;;;;1.92;1.52;;;;;;;;;;4790671;29;32303;-70
2021/11/18 07:50:16;;;;;;;2.17;1.65;;;;;;;;;;4798147;29;32187;-70
2021/11/18 07:52:43;;;;;;;2.00;1.73;;;;;;;;;;4803202;29;33917;-71
2021/11/18 07:55:12;;;;;;;2.35;2.10;;;;;;;;;;4809462;29;32209;-70
2021/11/18 07:57:40;;;;;;;20.08;6.07;;;;;;;;;;4805661;29;32279;-69
2021/11/18 08:00:12;;;;;;;12.95;3.75;;;;;;;;;;4810460;29;32925;-69
2021/11/18 08:02:40;;;;;;;13.20;5.10;;;;;;;;;;4811931;29;34219;-72
2021/11/18 08:05:08;;;;;;;13.27;5.40;;;;;;;;;;4808457;29;32461;-72
2021/11/18 08:07:35;;;;;;;9.80;3.28;;;;;;;;;;4811568;29;32197;-69
2021/11/18 08:10:01;;;;;;;8.77;3.25;;;;;;;;;;4811113;29;32340;-69
2021/11/18 08:12:28;;;;;;;66.85;5.32;;;;;;;;;;4811303;29;32234;-72
2021/11/18 08:14:56;;;;;;;64.90;5.45;;;;;;;;;;4811228;29;34408;-71
2021/11/18 08:17:23;;;;;;;33.53;4.22;;;;;;;;;;4811171;29;32432;-71
2021/11/18 08:19:49;;;;;;;20.70;3.78;;;;;;;;;;4810272;29;32242;-70
2021/11/18 08:22:16;;;;;;;16.50;3.40;;;;;;;;;;4811430;29;32547;-71
2021/11/18 08:24:43;;;;;;;10.40;3.40;;;;;;;;;;4811175;29;34037;-68
2021/11/18 08:27:10;;;;;;;14.90;2.67;;;;;;;;;;4811085;29;32208;-70
2021/11/18 08:29:37;;;;;;;15.85;2.83;;;;;;;;;;4811424;29;32337;-69
2021/11/18 08:32:07;;;;;;;9.93;2.70;;;;;;;;;;4811625;29;32277;-71
2021/11/18 08:34:34;;;;;;;12.68;2.80;;;;;;;;;;4811875;29;32129;-70
2021/11/18 08:37:01;;;;;;;6.60;2.45;;;;;;;;;;4811482;29;34086;-70
2021/11/18 08:39:28;;;;;;;9.30;3.03;;;;;;;;;;4811899;29;32144;-72
2021/11/18 08:41:58;;;;;;;7.43;2.47;;;;;;;;;;4811912;29;32296;-69
2021/11/18 08:44:26;;;;;;;6.32;1.95;;;;;;;;;;4812500;29;32206;-70
2021/11/18 08:46:54;;;;;;;9.05;2.20;;;;;;;;;;4811171;29;35036;-69
2021/11/18 08:49:24;;;;;;;7.55;2.03;;;;;;;;;;4810750;29;32151;-69
2021/11/18 08:51:52;;;;;;;4.68;2.17;;;;;;;;;;4811632;29;32362;-69
2021/11/18 08:54:23;;;;;;;3.80;1.92;;;;;;;;;;4812116;29;32218;-69
2021/11/18 08:56:52;;;;;;;4.43;2.28;;;;;;;;;;4811724;29;32161;-71
2021/11/18 08:59:20;;;;;;;3.10;2.03;;;;;;;;;;4811292;29;32385;-70
2021/11/18 09:01:51;;;;;;;3.08;2.15;;;;;;;;;;4807834;29;32244;-69
2021/11/18 09:04:19;;;;;;;2.60;1.95;;;;;;;;;;4810745;29;32350;-72
2021/11/18 09:06:48;;;;;;;2.13;1.63;;;;;;;;;;4811808;29;32159;-69
2021/11/18 09:09:21;;;;;;;4.35;2.10;;;;;;;;;;4810934;29;34513;-70
2021/11/18 09:11:50;;;;;;;3.80;2.00;;;;;;;;;;4810436;29;32318;-69
2021/11/18 09:14:18;;;;;;;2.28;1.70;;;;;;;;;;4811513;29;32195;-70
2021/11/18 09:16:46;;;;;;;2.55;2.30;;;;;;;;;;4793425;29;32338;-71
2021/11/18 09:19:15;;;;;;;2.47;1.75;;;;;;;;;;4794973;29;32294;-69
2021/11/18 09:21:43;;;;;;;1.98;1.73;;;;;;;;;;4811703;29;32364;-71
2021/11/18 09:24:17;;;;;;;2.22;1.90;;;;;;;;;;4805680;29;32256;-70
2021/11/18 09:26:56;;;;;;;2.00;1.58;;;;;;;;;;4796553;29;32204;-70
2021/11/18 09:29:23;;;;;;;1.95;1.75;;;;;;;;;;4794072;29;32101;-70
2021/11/18 09:31:49;;;;;;;2.13;1.92;;;;;;;;;;4793278;29;34513;-70
2021/11/18 09:34:16;;;;;;;4.28;1.98;;;;;;;;;;4793002;29;32332;-71
2021/11/18 09:36:44;;;;;;;2.05;1.80;;;;;;;;;;4793348;29;32433;-73
2021/11/18 09:39:13;;;;;;;3.00;1.73;;;;;;;;;;4793087;29;32366;-70
2021/11/18 09:41:53;;;;;;;2.33;1.85;;;;;;;;;;4793064;29;32056;-72
2021/11/18 09:45:07;;;;;;;3.30;2.20;;;;;;;;;;4792722;29;32550;-70
2021/11/18 09:48:07;;;;;;;3.53;2.03;;;;;;;;;;4799376;29;32303;-70
2021/11/18 09:50:45;;;;;;;3.60;2.03;;;;;;;;;;4809813;29;32276;-73
2021/11/18 09:53:30;;;;;;;3.60;2.13;;;;;;;;;;4810063;29;32439;-71
2021/11/18 09:56:09;;;;;;;3.22;2.08;;;;;;;;;;4810065;29;35288;-70
2021/11/18 09:59:02;;;;;;;2.90;2.05;;;;;;;;;;4811174;29;32064;-70
2021/11/18 10:01:58;;;;;;;2.90;2.17;;;;;;;;;;4811490;29;32075;-72
2021/11/18 10:04:34;;;;;;;2.78;2.45;;;;;;;;;;4806855;29;32375;-69
2021/11/18 10:07:08;;;;;;;2.22;1.95;;;;;;;;;;4811214;29;31647;-72
2021/11/18 10:09:44;;;;;;;2.97;2.35;;;;;;;;;;4807751;29;32329;-70
2021/11/18 10:12:25;;;;;;;2.83;1.83;;;;;;;;;;4810382;29;32220;-71
2021/11/18 10:14:58;;;;;;;2.53;2.30;;;;;;;;;;4809658;29;32279;-74
2021/11/18 10:17:31;;;;;;;2.70;1.92;;;;;;;;;;4808639;29;32287;-70
2021/11/18 10:20:03;;;;;;;2.08;1.88;;;;;;;;;;4810725;29;34029;-69
2021/11/18 10:22:34;;;;;;;3.10;2.80;;;;;;;;;;4810884;29;32174;-71
2021/11/18 10:25:01;;;;;;;1.92;1.67;;;;;;;;;;4809605;29;32273;-71
2021/11/18 10:27:35;;;;;;;2.97;2.13;;;;;;;;;;4810569;29;32278;-71
2021/11/18 10:30:19;;;;;;;2.95;1.75;;;;;;;;;;4816378;29;32240;-72
2021/11/18 10:32:53;;;;;;;2.47;1.90;;;;;;;;;;4816667;29;32305;-72
2021/11/18 10:35:31;;;;;;;2.38;1.90;;;;;;;;;;4808742;29;32248;-72
2021/11/18 10:38:21;;;;;;;1.90;1.70;;;;;;;;;;4809138;29;32518;-71
2021/11/18 10:41:01;;;;;;;3.17;2.15;;;;;;;;;;4810491;29;32421;-72
2021/11/18 10:43:32;;;;;;;2.38;1.85;;;;;;;;;;4811301;29;35285;-73
2021/11/18 10:46:24;;;;;;;2.95;2.45;;;;;;;;;;4810762;29;32088;-71
2021/11/18 10:49:04;;;;;;;4.25;2.25;;;;;;;;;;4822867;29;32433;-72
2021/11/18 10:51:51;;;;;;;1.75;1.63;;;;;;;;;;4810448;29;32287;-75
2021/11/18 10:54:37;;;;;;;2.47;1.88;;;;;;;;;;4792580;29;32247;-71
2021/11/18 10:57:05;;;;;;;;;;;;;;;;;;4792495;29;32536;-72
2021/11/18 10:59:37;;;;;;;2.00;1.80;;;;;;;;;;4792048;29;32255;-71
2021/11/18 11:02:21;;;;;;;1.92;1.70;;;;;;;;;;4791573;29;32302;-71
2021/11/18 11:04:51;;;;;;;2.28;2.08;;;;;;;;;;4809023;29;32483;-73
2021/11/18 11:07:37;;;;;;;2.80;2.17;;;;;;;;;;4809049;29;35279;-71
2021/11/18 11:10:09;;;;;;;2.63;2.08;;;;;;;;;;4808286;29;32369;-71
2021/11/18 11:12:41;;;;;;;2.47;1.73;;;;;;;;;;4807603;29;32311;-71
2021/11/18 11:15:39;;;;;;;3.20;1.67;;;;;;;;;;4808868;29;32176;-71
2021/11/18 11:18:44;;;;;;;2.50;1.92;;;;;;;;;;4807814;29;34561;-71
2021/11/18 11:21:48;;;;;;;2.83;2.17;;;;;;;;;;4791882;29;32467;-74
2021/11/18 11:24:43;;;;;;;2.67;2.17;;;;;;;;;;4791188;29;32403;-70
2021/11/18 11:27:47;;;;;;;3.72;1.98;;;;;;;;;;4791471;29;32077;-70
2021/11/18 11:30:40;;;;;;;2.10;1.67;;;;;;;;;;4791606;29;32237;-72
2021/11/18 11:33:14;;;;;;;2.83;2.15;;;;;;;;;;4790868;29;35667;-73
2021/11/18 11:35:52;;;;;;;2.85;2.33;;;;;;;;;;4794180;29;32484;-72
2021/11/18 11:38:54;;;;;;;2.90;1.80;;;;;;;;;;4794115;29;32306;-71
2021/11/18 11:42:36;;;;;;;2.35;2.10;;;;;;;;;;4795084;29;32330;-72
2021/11/18 11:45:16;;;;;;;2.88;2.05;;;;;;;;;;4794490;29;35438;-69
2021/11/18 11:48:36;;;;;;;2.92;2.25;;;;;;;;;;4805187;29;32380;-71
2021/11/18 11:51:27;;;;;;;3.42;2.15;;;;;;;;;;4812764;29;32201;-73
2021/11/18 11:54:41;;;;;;;3.05;2.67;;;;;;;;;;4812334;29;32363;-71
2021/11/18 11:57:24;;;;;;;3.13;2.45;;;;;;;;;;4783007;29;32247;-70
2021/11/18 12:00:04;;;;;;;2.97;2.22;;;;;;;;;;4811958;29;33909;-71
2021/11/18 12:02:40;;;;;;;2.70;2.10;;;;;;;;;;4808885;29;32322;-71
2021/11/18 12:05:13;;;;;;;3.45;2.03;;;;;;;;;;4810738;29;33395;-74
2021/11/18 12:08:00;;;;;;;2.60;2.25;;;;;;;;;;4794454;29;32365;-70
2021/11/18 12:10:31;;;;;;;3.08;2.55;;;;;;;;;;4793871;29;34121;-71
2021/11/18 12:13:16;;;;;;;2.47;2.22;;;;;;;;;;4794440;29;32167;-73
2021/11/18 12:15:46;;;;;;;2.70;1.90;;;;;;;;;;4793947;29;32301;-74
2021/11/18 12:18:23;;;;;;;2.42;2.08;;;;;;;;;;4793895;29;32413;-69
2021/11/18 12:20:55;;;;;;;4.15;2.17;;;;;;;;;;4792237;29;32411;-70
2021/11/18 12:23:21;;;;;;;3.08;2.15;;;;;;;;;;4793807;29;35255;-70
2021/11/18 12:26:11;;;;;;;2.45;2.05;;;;;;;;;;4793504;29;32474;-73
2021/11/18 12:28:40;;;;;;;10.90;3.65;;;;;;;;;;4794257;29;32271;-68
2021/11/18 12:31:21;;;;;;;6.55;3.10;;;;;;;;;;4793865;29;32219;-68
2021/11/18 12:33:55;;;;;;;6.13;2.63;;;;;;;;;;4793366;29;34309;-69
2021/11/18 12:36:56;;;;;;;6.25;2.83;;;;;;;;;;4793795;29;32196;-69
2021/11/18 12:40:15;;;;;;;6.72;2.78;;;;;;;;;;4793241;29;32192;-71
2021/11/18 12:43:01;;;;;;;6.20;3.15;;;;;;;;;;4754827;29;32557;-71
2021/11/18 12:45:49;;;;;;;5.28;3.15;;;;;;;;;;4754485;29;32253;-71
2021/11/18 12:48:21;;;;;;;4.78;2.72;;;;;;;;;;4787812;29;35632;-70
2021/11/18 12:51:16;;;;;;;4.68;2.85;;;;;;;;;;4804805;29;32427;-70
2021/11/18 12:53:52;;;;;;;3.10;2.25;;;;;;;;;;4804650;29;33192;-69
2021/11/18 12:56:31;;;;;;;4.57;2.78;;;;;;;;;;4810727;29;32297;-69
2021/11/18 12:59:09;;;;;;;5.45;3.08;;;;;;;;;;4808545;29;34659;-66
2021/11/18 13:02:00;;;;;;;6.20;3.10;;;;;;;;;;4809705;29;32297;-67
2021/11/18 13:04:52;;;;;;;8.43;3.88;;;;;;;;;;4810506;29;32328;-68
2021/11/18 13:07:46;;;;;;;6.43;3.70;;;;;;;;;;4810429;29;32278;-69
2021/11/18 13:10:40;;;;;;;6.00;3.78;;;;;;;;;;4809466;29;32340;-67
2021/11/18 13:13:36;;;;;;;6.55;3.63;;;;;;;;;;4810678;29;34164;-67
2021/11/18 13:16:29;;;;;;;5.43;3.67;;;;;;;;;;4811762;29;32238;-69
2021/11/18 13:19:10;;;;;;;;;;;;;;;;;;4812151;29;32172;-69
2021/11/18 13:21:52;;;;;;;6.10;3.88;;;;;;;;;;4812647;29;32178;-68
2021/11/18 13:24:39;;;;;;;7.28;4.13;;;;;;;;;;4807638;29;34027;-69
2021/11/18 13:27:11;;;;;;;8.00;4.40;;;;;;;;;;4811138;29;32184;-68
2021/11/18 13:29:46;;;;;;;7.85;4.30;;;;;;;;;;4807606;29;32459;-69
2021/11/18 13:32:19;;;;;;;8.73;5.20;;;;;;;;;;4791743;29;32186;-71
2021/11/18 13:34:59;;;;;;;8.32;5.10;;;;;;;;;;4807571;29;32111;-68
2021/11/18 13:37:30;;;;;;;9.00;5.15;;;;;;;;;;4809089;29;34157;-68
2021/11/18 13:40:15;;;;;;;8.13;4.93;;;;;;;;;;4809775;29;32191;-67
2021/11/18 13:43:00;;;;;;;7.35;4.90;;;;;;;;;;4808800;29;32121;-68
2021/11/18 13:45:31;;;;;;;6.78;4.68;;;;;;;;;;4811758;29;32345;-68
2021/11/18 13:48:04;;;;;;;7.80;4.60;;;;;;;;;;4809007;29;37079;-67
2021/11/18 13:50:39;;;;;;;9.27;4.88;;;;;;;;;;4807536;29;32100;-68
2021/11/18 13:53:10;;;;;;;8.30;5.13;;;;;;;;;;4811268;29;32460;-67
2021/11/18 13:55:48;;;;;;;8.15;4.55;;;;;;;;;;4807846;29;32295;-69
2021/11/18 13:58:19;;;;;;;6.68;4.45;;;;;;;;;;4810039;29;32287;-68
2021/11/18 14:00:47;;;;;;;7.03;4.25;;;;;;;;;;4805653;29;35073;-67
2021/11/18 14:03:21;;;;;;;5.40;3.83;;;;;;;;;;4804803;29;32387;-70
2021/11/18 14:05:52;;;;;;;5.88;3.75;;;;;;;;;;4807875;29;32249;-70
2021/11/18 14:08:22;;;;;;;6.72;4.07;;;;;;;;;;4808096;29;32363;-71
2021/11/18 14:10:54;;;;;;;6.10;4.05;;;;;;;;;;4809056;29;35313;-70
2021/11/18 14:13:38;;;;;;;5.85;4.15;;;;;;;;;;4807381;29;32093;-70
2021/11/18 14:16:08;;;;;;;5.25;3.65;;;;;;;;;;4793844;29;32402;-71
2021/11/18 14:18:37;;;;;;;7.35;4.05;;;;;;;;;;4807538;29;32310;-70
2021/11/18 14:21:16;;;;;;;5.53;4.40;;;;;;;;;;4807389;29;32286;-71
2021/11/18 14:24:04;;;;;;;6.88;4.18;;;;;;;;;;4807534;29;35391;-70
2021/11/18 14:26:38;;;;;;;5.68;3.83;;;;;;;;;;4809116;29;32274;-70
2021/11/18 14:29:49;;;;;;;6.72;4.05;;;;;;;;;;4810131;29;32341;-71
2021/11/18 14:32:35;;;;;;;6.43;4.75;;;;;;;;;;4741711;29;32505;-69
2021/11/18 14:35:24;;;;;;;7.53;4.60;;;;;;;;;;4750174;29;35148;-73
2021/11/18 14:37:57;;;;;;;6.53;4.80;;;;;;;;;;4798090;29;32457;-71
2021/11/18 14:40:28;;;;;;;6.72;4.65;;;;;;;;;;4806977;29;32511;-71
2021/11/18 14:43:07;;;;;;;7.47;4.80;;;;;;;;;;4809230;29;32550;-70
2021/11/18 14:45:38;;;;;;;6.28;4.82;;;;;;;;;;4810053;29;32095;-69
2021/11/18 14:48:28;;;;;;;6.28;4.43;;;;;;;;;;4808728;29;34882;-70
2021/11/18 14:51:04;;;;;;;7.07;5.18;;;;;;;;;;4808495;29;32217;-69
2021/11/18 14:53:34;;;;;;;8.85;5.43;;;;;;;;;;4807689;29;32104;-70
2021/11/18 14:56:07;;;;;;;7.80;4.82;;;;;;;;;;4808918;29;32234;-70
2021/11/18 14:58:37;;;;;;;8.02;5.55;;;;;;;;;;4808184;29;34456;-70
2021/11/18 15:01:22;;;;;;;8.43;5.25;;;;;;;;;;4806223;29;32225;-70
2021/11/18 15:03:59;;;;;;;8.90;4.93;;;;;;;;;;4808802;29;32155;-72
2021/11/18 15:06:30;;;;;;;8.45;5.00;;;;;;;;;;4807636;29;32021;-71
2021/11/18 15:08:59;;;;;;;9.57;5.43;;;;;;;;;;4805063;29;32273;-72
2021/11/18 15:11:28;;;;;;;8.88;5.10;;;;;;;;;;4809176;29;35012;-71
2021/11/18 15:13:55;;;;;;;8.85;5.47;;;;;;;;;;4803386;29;32215;-70
2021/11/18 15:16:24;;;;;;;9.95;5.82;;;;;;;;;;4808541;29;32406;-72
2021/11/18 15:18:51;;;;;;;9.70;5.40;;;;;;;;;;4809342;29;32057;-71